Time;durP1;ratioP1;P1;durP2;ratioP2;P2;SDS_P1;SDS_P2;PMS_P1;PMS_P2;Temp;Humidity;BMP_temperature;BMP_pressure;BME280_temperature;BME280_humidity;BME280_pressure;Samples;Min_cycle;Max_cycle;Signal;HPM_P1;HPM_P2
2023/05/11 00:01:14;;;;;;;41.30;26.13;;;;;;;12.20;100.00;101323.44;5275949;28;20512;-66
2023/05/11 00:03:45;;;;;;;36.25;24.88;;;;;;;12.22;100.00;101328.69;5273999;28;20082;-66
2023/05/11 00:06:17;;;;;;;43.25;26.05;;;;;;;12.15;100.00;101315.75;5272515;28;20036;-66
2023/05/11 00:08:48;;;;;;;37.55;24.77;;;;;;;12.19;100.00;101319.03;5275830;28;20459;-66
2023/05/11 00:11:20;;;;;;;40.70;25.52;;;;;;;12.13;100.00;101319.53;5271485;28;20449;-67
2023/05/11 00:13:51;;;;;;;51.92;26.77;;;;;;;12.11;100.00;101311.59;5272964;28;20548;-66
2023/05/11 00:16:22;;;;;;;41.22;25.98;;;;;;;12.11;100.00;101310.75;5273996;28;20028;-66
2023/05/11 00:18:54;;;;;;;41.47;26.80;;;;;;;12.06;100.00;101315.59;5275107;28;20089;-66
2023/05/11 00:21:25;;;;;;;42.05;26.67;;;;;;;12.04;100.00;101302.38;5273191;28;20372;-66
2023/05/11 00:23:57;;;;;;;41.45;25.60;;;;;;;12.04;100.00;101305.03;5269173;28;20078;-66
2023/05/11 00:26:28;;;;;;;49.42;28.00;;;;;;;12.04;100.00;101306.84;5270346;28;20478;-66
2023/05/11 00:28:59;;;;;;;43.70;26.35;;;;;;;12.03;100.00;101300.63;5272037;28;20120;-66
2023/05/11 00:31:31;;;;;;;44.83;28.15;;;;;;;12.02;100.00;101303.44;5272236;28;20035;-68
2023/05/11 00:34:02;;;;;;;48.78;27.70;;;;;;;11.98;100.00;101304.63;5271237;28;20383;-66
2023/05/11 00:36:34;;;;;;;37.88;25.25;;;;;;;12.00;100.00;101308.88;5272435;28;20024;-66
2023/05/11 00:39:06;;;;;;;45.60;26.77;;;;;;;11.98;100.00;101310.81;5271922;28;20034;-66
2023/05/11 00:41:37;;;;;;;42.50;27.15;;;;;;;12.14;100.00;101310.53;5268094;28;20024;-66
2023/05/11 00:44:08;;;;;;;41.25;27.40;;;;;;;12.07;100.00;101317.31;5269954;28;20699;-66
2023/05/11 00:46:41;;;;;;;44.80;28.42;;;;;;;11.92;100.00;101314.81;5272561;28;20028;-66
2023/05/11 00:49:16;;;;;;;52.20;29.23;;;;;;;12.05;100.00;101320.09;5271959;28;20028;-66
2023/05/11 00:51:47;;;;;;;48.08;28.08;;;;;;;11.87;100.00;101319.63;5271324;28;20037;-66
2023/05/11 00:54:19;;;;;;;47.58;28.08;;;;;;;11.83;100.00;101314.59;5275503;28;20037;-66
2023/05/11 00:56:50;;;;;;;54.80;28.83;;;;;;;11.85;100.00;101324.25;5272316;28;20591;-66
2023/05/11 00:59:22;;;;;;;51.05;29.70;;;;;;;11.90;100.00;101321.25;5272188;28;20143;-66
2023/05/11 01:01:54;;;;;;;47.33;28.95;;;;;;;11.86;100.00;101320.59;5269036;28;20455;-65
2023/05/11 01:04:26;;;;;;;57.45;30.67;;;;;;;11.87;100.00;101322.31;5288131;27;20047;-66
2023/05/11 01:07:22;;;;;;;60.90;30.25;;;;;;;11.94;100.00;101326.25;5316691;27;20118;-66
2023/05/11 01:10:09;;;;;;;49.42;28.40;;;;;;;11.89;100.00;101325.75;5314967;27;20022;-66
2023/05/11 01:13:01;;;;;;;49.80;29.10;;;;;;;11.98;100.00;101328.69;5315316;27;20039;-66
2023/05/11 01:15:39;;;;;;;49.47;30.38;;;;;;;11.99;100.00;101320.56;5313560;27;20035;-66
2023/05/11 01:18:23;;;;;;;53.50;30.98;;;;;;;12.00;100.00;101324.09;5318253;27;20020;-66
2023/05/11 01:20:58;;;;;;;55.92;30.98;;;;;;;11.99;100.00;101335.75;5314839;27;20024;-66
2023/05/11 01:24:00;;;;;;;59.67;32.35;;;;;;;12.04;100.00;101328.22;5318179;27;20355;-66
2023/05/11 01:26:43;;;;;;;56.13;31.02;;;;;;;11.95;100.00;101325.28;5307435;27;20043;-66
2023/05/11 01:29:33;;;;;;;63.45;31.40;;;;;;;11.91;100.00;101328.31;5317115;27;20831;-66
2023/05/11 01:32:14;;;;;;;51.38;31.45;;;;;;;11.96;100.00;101326.97;5315297;27;20348;-66
2023/05/11 01:34:47;;;;;;;56.47;31.13;;;;;;;12.00;100.00;101327.59;5318198;27;20062;-65
2023/05/11 01:37:22;;;;;;;46.55;30.17;;;;;;;12.05;100.00;101327.28;5316119;27;20419;-66
2023/05/11 01:39:57;;;;;;;56.20;31.67;;;;;;;12.05;100.00;101332.63;5317273;27;20023;-65
2023/05/11 01:42:39;;;;;;;56.88;32.67;;;;;;;11.98;100.00;101323.34;5311200;27;20752;-66
2023/05/11 01:45:12;;;;;;;58.35;33.28;;;;;;;11.96;100.00;101335.00;5315443;27;20046;-66
2023/05/11 01:47:47;;;;;;;53.80;32.95;;;;;;;12.00;100.00;101334.78;5318672;27;20374;-66
2023/05/11 01:50:23;;;;;;;67.68;33.20;;;;;;;11.94;100.00;101331.59;5312069;28;20784;-66
2023/05/11 01:52:54;;;;;;;53.67;33.70;;;;;;;12.14;100.00;101329.25;5316516;27;20027;-66
2023/05/11 01:55:26;;;;;;;57.30;33.00;;;;;;;11.98;100.00;101331.38;5311078;27;20035;-66
2023/05/11 01:57:59;;;;;;;56.13;33.28;;;;;;;11.96;100.00;101332.31;5317891;27;20030;-66
2023/05/11 02:00:32;;;;;;;59.35;33.55;;;;;;;11.95;100.00;101327.13;5318007;27;20446;-66
2023/05/11 02:03:06;;;;;;;60.10;33.85;;;;;;;11.86;100.00;101330.44;5320987;27;20032;-66
2023/05/11 02:05:39;;;;;;;57.20;33.22;;;;;;;11.86;100.00;101333.94;5280515;28;20044;-66
2023/05/11 02:08:13;;;;;;;54.85;33.05;;;;;;;11.92;100.00;101330.84;5267432;28;20059;-66
2023/05/11 02:10:47;;;;;;;85.65;36.17;;;;;;;11.85;100.00;101326.91;5274305;28;20119;-66
2023/05/11 02:13:19;;;;;;;73.40;35.58;;;;;;;11.87;100.00;101337.47;5271298;28;20074;-66
2023/05/11 02:15:55;;;;;;;71.20;36.45;;;;;;;11.83;100.00;101330.66;5259913;28;20115;-66
2023/05/11 02:18:27;;;;;;;73.10;37.05;;;;;;;11.80;100.00;101321.03;5270708;28;20028;-66
2023/05/11 02:21:01;;;;;;;66.55;35.67;;;;;;;11.77;100.00;101315.91;5263045;28;20507;-66
2023/05/11 02:23:33;;;;;;;73.65;39.67;;;;;;;11.73;100.00;101317.13;5267271;28;20035;-66
2023/05/11 02:26:07;;;;;;;78.70;37.58;;;;;;;11.70;100.00;101318.19;5271854;28;20037;-66
2023/05/11 02:28:38;;;;;;;65.07;37.00;;;;;;;11.71;100.00;101316.38;5271784;28;20475;-67
2023/05/11 02:31:16;;;;;;;77.47;40.13;;;;;;;11.66;100.00;101314.06;5272586;28;20033;-66
2023/05/11 02:33:51;;;;;;;76.18;38.45;;;;;;;11.67;100.00;101312.22;5272687;28;20029;-66
2023/05/11 02:36:27;;;;;;;71.65;38.38;;;;;;;11.67;100.00;101320.25;5272049;28;20028;-66
2023/05/11 02:39:04;;;;;;;95.28;42.63;;;;;;;11.68;100.00;101322.81;5273559;28;20121;-66
2023/05/11 02:41:43;;;;;;;71.82;38.53;;;;;;;11.78;100.00;101320.31;5271130;28;20178;-66
2023/05/11 02:44:17;;;;;;;109.45;43.17;;;;;;;11.76;100.00;101320.41;5272273;28;20032;-66
2023/05/11 02:46:51;;;;;;;87.22;42.35;;;;;;;11.73;100.00;101325.97;5271072;28;20035;-66
2023/05/11 02:49:28;;;;;;;73.50;41.20;;;;;;;11.86;100.00;101323.25;5272464;28;20032;-66
2023/05/11 02:52:01;;;;;;;97.03;45.42;;;;;;;11.82;100.00;101324.47;5273134;28;20025;-65
2023/05/11 02:54:34;;;;;;;77.80;42.20;;;;;;;11.78;100.00;101318.47;5271957;28;20135;-65
2023/05/11 02:57:06;;;;;;;86.45;42.42;;;;;;;11.78;100.00;101318.47;5268731;28;20060;-66
2023/05/11 02:59:37;;;;;;;86.35;42.55;;;;;;;11.75;100.00;101317.84;5269619;28;20116;-66
2023/05/11 03:02:09;;;;;;;83.07;41.70;;;;;;;11.70;100.00;101315.53;5270243;28;20028;-66
2023/05/11 03:04:41;;;;;;;141.77;48.08;;;;;;;11.71;100.00;101319.03;5290423;28;20050;-66
2023/05/11 03:07:12;;;;;;;87.57;43.33;;;;;;;11.68;100.00;101325.47;5308872;28;20048;-66
2023/05/11 03:09:43;;;;;;;77.68;40.75;;;;;;;11.76;100.00;101335.63;5313886;28;20043;-66
2023/05/11 03:12:15;;;;;;;88.30;41.08;;;;;;;11.63;100.00;101332.13;5310752;28;20032;-66
2023/05/11 03:14:47;;;;;;;167.68;47.47;;;;;;;11.61;100.00;101321.53;5315253;28;20424;-66
2023/05/11 03:17:20;;;;;;;74.63;40.28;;;;;;;11.68;100.00;101327.31;5332270;27;20055;-66
2023/05/11 03:19:53;;;;;;;79.25;41.20;;;;;;;11.57;100.00;101331.59;5312742;28;20034;-65
2023/05/11 03:22:25;;;;;;;73.28;39.72;;;;;;;11.59;100.00;101331.50;5312587;28;20045;-66
2023/05/11 03:24:57;;;;;;;70.65;38.58;;;;;;;11.59;100.00;101336.84;5312563;28;20058;-66
2023/05/11 03:27:29;;;;;;;74.10;40.65;;;;;;;11.60;100.00;101337.69;5310136;28;20016;-66
2023/05/11 03:30:04;;;;;;;62.25;37.78;;;;;;;11.61;100.00;101342.09;5316462;28;20076;-67
2023/05/11 03:32:35;;;;;;;62.55;37.53;;;;;;;11.52;100.00;101336.41;5314697;28;20479;-66
2023/05/11 03:35:07;;;;;;;65.05;38.22;;;;;;;11.50;100.00;101333.00;5317409;28;20035;-66
2023/05/11 03:37:41;;;;;;;64.25;38.03;;;;;;;11.47;100.00;101325.22;5315853;28;20098;-66
2023/05/11 03:40:15;;;;;;;70.22;38.40;;;;;;;11.49;100.00;101333.16;5320121;27;20063;-66
2023/05/11 03:42:47;;;;;;;63.63;36.42;;;;;;;11.46;100.00;101328.84;5318999;27;20030;-66
2023/05/11 03:45:19;;;;;;;147.80;42.70;;;;;;;11.38;100.00;101321.41;5320047;27;20026;-67
2023/05/11 03:47:52;;;;;;;98.93;41.65;;;;;;;11.39;100.00;101335.63;5318753;27;20441;-66
2023/05/11 03:50:25;;;;;;;93.50;39.83;;;;;;;11.24;100.00;101323.34;5323736;27;20050;-66
2023/05/11 03:52:58;;;;;;;108.00;42.95;;;;;;;11.27;100.00;101323.13;5317214;27;20203;-66
2023/05/11 03:55:30;;;;;;;70.35;38.03;;;;;;;11.26;100.00;101324.13;5319609;27;20019;-66
2023/05/11 03:58:06;;;;;;;68.13;38.45;;;;;;;11.32;100.00;101326.34;5320493;27;20019;-66
2023/05/11 04:00:39;;;;;;;144.60;46.90;;;;;;;11.22;100.00;101327.94;5320130;27;20028;-66
2023/05/11 04:03:11;;;;;;;140.75;45.78;;;;;;;11.14;100.00;101329.38;5319963;27;20027;-66
2023/05/11 04:05:42;;;;;;;131.82;44.95;;;;;;;11.18;100.00;101333.53;5318104;27;21616;-66
2023/05/11 04:08:14;;;;;;;94.45;41.92;;;;;;;11.14;100.00;101318.69;5315287;27;20381;-66
2023/05/11 04:10:45;;;;;;;77.22;41.25;;;;;;;11.22;100.00;101325.28;5317666;27;20481;-66
2023/05/11 04:13:17;;;;;;;109.03;42.85;;;;;;;11.22;100.00;101325.28;5317363;27;20023;-66
2023/05/11 04:15:48;;;;;;;84.60;43.92;;;;;;;11.24;100.00;101328.69;5317108;27;20543;-66
2023/05/11 04:18:19;;;;;;;112.40;46.28;;;;;;;11.19;100.00;101324.53;5319696;27;20057;-66
2023/05/11 04:20:51;;;;;;;105.45;47.75;;;;;;;11.17;100.00;101317.59;5323032;27;21026;-67
2023/05/11 04:23:22;;;;;;;111.38;50.00;;;;;;;11.16;100.00;101327.44;5319278;27;20039;-66
2023/05/11 04:25:55;;;;;;;96.18;45.67;;;;;;;11.18;100.00;101325.50;5315506;27;20034;-66
2023/05/11 04:28:26;;;;;;;108.15;48.78;;;;;;;11.18;100.00;101324.66;5318521;27;20381;-66
2023/05/11 04:30:58;;;;;;;128.40;50.75;;;;;;;11.21;100.00;101327.09;5309197;27;20039;-66
2023/05/11 04:33:29;;;;;;;99.63;48.97;;;;;;;11.29;100.00;101326.56;5309402;27;20027;-66
2023/05/11 04:36:00;;;;;;;112.28;48.47;;;;;;;11.32;100.00;101342.38;5313764;27;20402;-66
2023/05/11 04:38:32;;;;;;;93.45;47.13;;;;;;;11.37;100.00;101333.06;5317936;27;20027;-66
2023/05/11 04:41:05;;;;;;;100.15;47.30;;;;;;;11.42;100.00;101327.38;5314350;27;20042;-66
2023/05/11 04:43:36;;;;;;;96.00;48.25;;;;;;;11.32;100.00;101339.69;5315669;27;20028;-66
2023/05/11 04:46:07;;;;;;;95.72;48.20;;;;;;;11.46;100.00;101334.19;5305443;27;20478;-66
2023/05/11 04:48:39;;;;;;;130.00;50.80;;;;;;;11.42;100.00;101340.72;5312831;27;20023;-66
2023/05/11 04:51:10;;;;;;;96.18;49.47;;;;;;;11.50;100.00;101332.16;5312911;27;20024;-66
2023/05/11 04:53:41;;;;;;;110.30;52.92;;;;;;;11.41;100.00;101340.84;5312448;27;20031;-66
2023/05/11 04:56:13;;;;;;;104.03;49.67;;;;;;;11.50;100.00;101340.19;5310775;27;20027;-66
2023/05/11 04:58:44;;;;;;;105.10;51.85;;;;;;;11.54;100.00;101347.00;5308117;27;20058;-66
2023/05/11 05:01:15;;;;;;;109.57;51.38;;;;;;;11.60;100.00;101354.56;5314915;27;20028;-66
2023/05/11 05:03:48;;;;;;;143.50;55.20;;;;;;;11.58;100.00;101354.72;5297134;27;20595;-65
2023/05/11 05:06:19;;;;;;;132.63;53.90;;;;;;;11.61;100.00;101355.44;5269489;28;20056;-66
2023/05/11 05:08:51;;;;;;;158.07;57.20;;;;;;;11.63;100.00;101354.34;5273756;28;20119;-66
2023/05/11 05:11:23;;;;;;;107.88;49.90;;;;;;;11.66;100.00;101354.16;5269915;28;20360;-66
2023/05/11 05:13:54;;;;;;;118.95;52.10;;;;;;;11.68;100.00;101364.72;5301298;27;20077;-66
2023/05/11 05:16:25;;;;;;;159.27;55.03;;;;;;;11.70;100.00;101363.66;5271628;28;20131;-66
2023/05/11 05:18:57;;;;;;;125.32;53.40;;;;;;;11.73;100.00;101365.22;5265441;28;20032;-66
2023/05/11 05:21:28;;;;;;;114.55;52.33;;;;;;;11.80;100.00;101368.31;5270040;28;20358;-66
2023/05/11 05:24:00;;;;;;;103.03;50.55;;;;;;;11.90;100.00;101378.25;5271373;28;20081;-66
2023/05/11 05:26:31;;;;;;;117.07;53.13;;;;;;;11.90;100.00;101374.72;5269365;28;20539;-66
2023/05/11 05:29:04;;;;;;;107.40;51.20;;;;;;;11.86;100.00;101370.53;5269003;28;20038;-66
2023/05/11 05:31:36;;;;;;;109.65;51.78;;;;;;;11.93;100.00;101370.00;5270358;28;20029;-66
2023/05/11 05:34:07;;;;;;;90.55;48.63;;;;;;;11.94;100.00;101379.72;5265676;28;20081;-66
2023/05/11 05:36:38;;;;;;;132.85;53.50;;;;;;;12.00;100.00;101385.59;5272622;28;20028;-66
2023/05/11 05:39:11;;;;;;;121.82;51.60;;;;;;;12.01;100.00;101376.63;5274617;28;20371;-66
2023/05/11 05:41:42;;;;;;;106.07;50.08;;;;;;;12.04;100.00;101379.94;5275859;28;20036;-66
2023/05/11 05:44:14;;;;;;;114.38;50.38;;;;;;;12.15;100.00;101385.31;5270003;28;20051;-66
2023/05/11 05:46:45;;;;;;;125.18;54.78;;;;;;;12.14;100.00;101388.13;5268547;28;20037;-66
2023/05/11 05:49:16;;;;;;;104.50;52.22;;;;;;;12.16;100.00;101380.81;5269906;28;20134;-66
2023/05/11 05:51:49;;;;;;;97.35;49.17;;;;;;;12.23;100.00;101387.41;5274438;28;20447;-66
2023/05/11 05:54:20;;;;;;;94.35;47.97;;;;;;;12.24;100.00;101389.13;5270550;28;20487;-66
2023/05/11 05:56:52;;;;;;;100.65;50.35;;;;;;;12.23;100.00;101387.41;5267235;28;20031;-66
2023/05/11 05:59:23;;;;;;;122.47;53.58;;;;;;;12.26;100.00;101397.88;5275386;28;20062;-66
2023/05/11 06:01:55;;;;;;;118.03;51.03;;;;;;;12.27;100.00;101393.38;5271521;28;20443;-67
2023/05/11 06:04:26;;;;;;;105.90;50.75;;;;;;;12.31;100.00;101397.53;5285164;27;20048;-67
2023/05/11 06:06:58;;;;;;;115.78;52.53;;;;;;;12.34;100.00;101391.97;5298626;28;20116;-66
2023/05/11 06:09:30;;;;;;;126.45;53.05;;;;;;;12.39;100.00;101402.31;5312195;27;20412;-66
2023/05/11 06:12:01;;;;;;;139.93;55.60;;;;;;;12.45;100.00;101392.00;5316367;27;20027;-66
2023/05/11 06:14:33;;;;;;;139.55;56.45;;;;;;;12.47;100.00;101405.28;5313441;27;20396;-66
2023/05/11 06:17:04;;;;;;;131.85;58.53;;;;;;;12.45;100.00;101396.50;5314532;27;20035;-66
2023/05/11 06:19:35;;;;;;;121.30;55.90;;;;;;;12.42;100.00;101404.75;5310997;27;20043;-66
2023/05/11 06:22:08;;;;;;;120.20;54.97;;;;;;;12.49;100.00;101408.69;5317396;27;20023;-67
2023/05/11 06:24:39;;;;;;;120.35;55.60;;;;;;;12.47;100.00;101405.28;5314756;28;20023;-66
2023/05/11 06:27:11;;;;;;;124.30;55.63;;;;;;;12.46;100.00;101401.72;5313772;27;20128;-66
2023/05/11 06:29:42;;;;;;;110.10;54.17;;;;;;;12.43;100.00;101409.16;5314261;27;20496;-66
2023/05/11 06:32:13;;;;;;;116.82;53.50;;;;;;;12.45;100.00;101413.41;5315368;27;20097;-66
2023/05/11 06:34:45;;;;;;;109.57;53.47;;;;;;;12.43;100.00;101406.47;5311597;28;20072;-66
2023/05/11 06:37:19;;;;;;;112.15;54.38;;;;;;;12.44;100.00;101411.69;5312732;28;20144;-66
2023/05/11 06:39:51;;;;;;;120.40;56.15;;;;;;;12.45;100.00;101405.38;5307354;28;20126;-66
2023/05/11 06:42:22;;;;;;;118.93;55.67;;;;;;;12.45;100.00;101415.25;5317547;28;20024;-66
2023/05/11 06:44:54;;;;;;;105.72;53.70;;;;;;;12.44;100.00;101418.88;5315829;28;20023;-66
2023/05/11 06:47:25;;;;;;;109.80;53.05;;;;;;;12.47;100.00;101415.97;5313380;28;20202;-66
2023/05/11 06:49:57;;;;;;;112.65;54.17;;;;;;;12.49;100.00;101417.56;5316110;28;20027;-66
2023/05/11 06:52:28;;;;;;;103.53;51.75;;;;;;;12.49;100.00;101412.22;5314660;28;20024;-66
2023/05/11 06:55:00;;;;;;;105.75;51.75;;;;;;;12.49;100.00;101417.56;5310810;28;20476;-66
2023/05/11 06:57:31;;;;;;;104.10;51.13;;;;;;;12.50;100.00;101418.41;5311494;28;20035;-66
2023/05/11 07:00:03;;;;;;;110.55;51.10;;;;;;;12.50;100.00;101429.13;5314438;28;20066;-66
2023/05/11 07:02:35;;;;;;;96.57;49.63;;;;;;;12.53;100.00;101427.06;5312457;28;20031;-66
2023/05/11 07:05:06;;;;;;;106.75;53.65;;;;;;;12.48;100.00;101433.72;5288797;28;20044;-66
2023/05/11 07:07:38;;;;;;;102.93;52.33;;;;;;;12.44;100.00;101429.59;5271853;28;20059;-66
2023/05/11 07:10:09;;;;;;;104.38;52.88;;;;;;;12.46;100.00;101435.69;5263412;28;20850;-66
2023/05/11 07:12:41;;;;;;;99.65;52.45;;;;;;;12.56;100.00;101428.69;5269452;28;20391;-66
2023/05/11 07:15:12;;;;;;;106.90;55.40;;;;;;;12.59;100.00;101432.94;5270346;28;20039;-66
2023/05/11 07:17:46;;;;;;;113.78;55.10;;;;;;;12.55;100.00;101433.16;5269904;28;20031;-66
2023/05/11 07:20:17;;;;;;;132.52;58.38;;;;;;;12.59;100.00;101436.47;5271054;28;20716;-66
2023/05/11 07:22:49;;;;;;;151.40;63.42;;;;;;;12.54;100.00;101434.16;5274788;28;20032;-65
2023/05/11 07:25:20;;;;;;;150.43;61.28;;;;;;;12.56;100.00;101436.72;5272585;28;20104;-66
2023/05/11 07:27:52;;;;;;;147.43;61.67;;;;;;;12.59;100.00;101435.63;5269368;28;20076;-66
2023/05/11 07:30:24;;;;;;;150.70;64.03;;;;;;;12.60;100.00;101438.19;5273142;28;20475;-66
2023/05/11 07:32:55;;;;;;;146.98;61.90;;;;;;;12.56;100.00;101434.03;5274203;28;20032;-66
2023/05/11 07:35:27;;;;;;;144.80;62.13;;;;;;;12.55;100.00;101438.50;5276548;28;20503;-66
2023/05/11 07:37:58;;;;;;;132.60;58.70;;;;;;;12.52;100.00;101438.75;5271743;28;20027;-66
2023/05/11 07:40:29;;;;;;;129.95;60.03;;;;;;;12.52;100.00;101429.84;5270742;28;20067;-66
2023/05/11 07:43:01;;;;;;;138.02;59.55;;;;;;;12.55;100.00;101435.00;5268717;28;20029;-66
2023/05/11 07:45:32;;;;;;;130.48;57.35;;;;;;;12.59;100.00;101430.25;5266578;28;20447;-66
2023/05/11 07:48:04;;;;;;;127.10;57.22;;;;;;;12.64;100.00;101438.81;5271634;28;20032;-66
2023/05/11 07:50:35;;;;;;;127.75;57.97;;;;;;;12.63;100.00;101442.44;5271660;28;20090;-66
2023/05/11 07:53:07;;;;;;;118.93;56.33;;;;;;;12.68;100.00;101441.13;5273852;28;20044;-66
2023/05/11 07:55:38;;;;;;;121.35;56.30;;;;;;;12.83;100.00;101447.13;5272482;28;20043;-66
2023/05/11 07:58:09;;;;;;;130.65;56.60;;;;;;;12.70;100.00;101449.88;5272301;28;20508;-67
2023/05/11 08:00:41;;;;;;;130.52;57.58;;;;;;;12.69;100.00;101439.28;5274973;28;20035;-66
2023/05/11 08:03:13;;;;;;;133.50;56.88;;;;;;;12.79;100.00;101442.13;5266283;28;20032;-66
2023/05/11 08:05:46;;;;;;;124.53;55.78;;;;;;;12.77;100.00;101449.41;5302744;27;20051;-66
2023/05/11 08:08:17;;;;;;;136.73;57.83;;;;;;;12.70;100.00;101455.25;5316117;27;20445;-66
2023/05/11 08:10:48;;;;;;;120.10;54.63;;;;;;;12.75;100.00;101450.41;5312990;27;20358;-66
2023/05/11 08:13:20;;;;;;;128.82;57.95;;;;;;;12.64;100.00;101450.34;5314774;27;20086;-66
2023/05/11 08:15:51;;;;;;;122.20;54.53;;;;;;;12.65;100.00;101457.41;5314804;27;20023;-66
2023/05/11 08:18:23;;;;;;;123.93;54.28;;;;;;;12.64;100.00;101454.88;5317752;27;20034;-66
2023/05/11 08:20:54;;;;;;;124.47;56.08;;;;;;;12.61;100.00;101455.09;5322522;27;20389;-66
2023/05/11 08:23:25;;;;;;;136.52;57.25;;;;;;;12.59;100.00;101457.88;5317312;27;20546;-66
2023/05/11 08:25:57;;;;;;;125.53;56.75;;;;;;;12.60;100.00;101462.28;5315486;27;20080;-66
2023/05/11 08:28:28;;;;;;;134.63;58.70;;;;;;;12.60;100.00;101454.25;5317670;27;20023;-66
2023/05/11 08:31:00;;;;;;;129.25;58.55;;;;;;;12.64;100.00;101454.88;5312999;27;20023;-66
2023/05/11 08:33:31;;;;;;;132.98;58.13;;;;;;;12.60;100.00;101454.25;5310041;27;20027;-66
2023/05/11 08:36:03;;;;;;;131.15;59.08;;;;;;;12.64;100.00;101447.69;5315107;27;20028;-66
2023/05/11 08:38:35;;;;;;;143.40;59.90;;;;;;;12.69;100.00;101458.88;5313944;27;20103;-66
2023/05/11 08:41:07;;;;;;;140.98;58.03;;;;;;;12.79;100.00;101447.47;5313611;27;20031;-66
2023/05/11 08:43:39;;;;;;;136.77;58.65;;;;;;;12.85;100.00;101447.03;5322008;27;20142;-65
2023/05/11 08:46:16;;;;;;;133.32;58.60;;;;;;;12.91;100.00;101455.44;5312442;27;20143;-65
2023/05/11 08:48:49;;;;;;;139.68;61.08;;;;;;;12.95;100.00;101450.69;5315973;27;20398;-66
2023/05/11 08:51:21;;;;;;;133.65;59.42;;;;;;;12.98;100.00;101458.47;5315680;27;20479;-66
2023/05/11 08:53:55;;;;;;;128.77;59.90;;;;;;;13.00;100.00;101464.59;5317255;27;20027;-66
2023/05/11 08:56:29;;;;;;;130.48;60.50;;;;;;;13.06;100.00;101461.44;5315108;27;20031;-66
2023/05/11 08:59:03;;;;;;;137.23;59.38;;;;;;;13.13;100.00;101462.69;5312758;27;20036;-66
2023/05/11 09:01:38;;;;;;;129.82;58.90;;;;;;;13.14;100.00;101460.84;5314421;27;20036;-66
2023/05/11 09:04:09;;;;;;;134.65;60.55;;;;;;;13.21;100.00;101462.09;5313200;27;20039;-66
2023/05/11 09:06:41;;;;;;;133.65;58.00;;;;;;;13.22;100.00;101458.41;5313522;27;20116;-66
2023/05/11 09:09:13;;;;;;;131.05;59.75;;;;;;;13.24;100.00;101460.97;5316247;27;20110;-66
2023/05/11 09:11:45;;;;;;;130.18;58.80;;;;;;;13.29;100.00;101466.84;5314955;27;20952;-65
2023/05/11 09:14:16;;;;;;;129.77;59.63;;;;;;;13.30;100.00;101472.09;5317451;27;20038;-66
2023/05/11 09:16:48;;;;;;;120.00;57.03;;;;;;;13.39;100.00;101469.69;5310453;27;20106;-65
2023/05/11 09:19:19;;;;;;;127.70;60.22;;;;;;;13.46;100.00;101465.53;5314583;27;20114;-65
2023/05/11 09:21:52;;;;;;;135.35;60.13;;;;;;;13.51;100.00;101466.88;5314105;27;20042;-66
2023/05/11 09:24:23;;;;;;;118.07;57.63;;;;;;;13.63;100.00;101472.25;5309248;27;20030;-65
2023/05/11 09:27:08;;;;;;;123.03;57.85;;;;;;;13.72;100.00;101474.19;5325948;27;20034;-65
2023/05/11 09:29:40;;;;;;;121.97;56.88;;;;;;;13.80;100.00;101465.53;5309362;27;20190;-65
2023/05/11 09:32:11;;;;;;;121.22;56.28;;;;;;;13.83;100.00;101471.50;5310761;27;20031;-65
2023/05/11 09:34:42;;;;;;;114.75;55.55;;;;;;;13.85;100.00;101464.19;5312249;27;20059;-65
2023/05/11 09:37:16;;;;;;;112.45;53.72;;;;;;;14.00;100.00;101458.56;5306428;27;20102;-65
2023/05/11 09:39:53;;;;;;;115.88;56.17;;;;;;;14.10;100.00;101462.22;5318649;27;20110;-65
2023/05/11 09:42:24;;;;;;;105.82;53.67;;;;;;;14.10;100.00;101464.91;5317196;27;20060;-65
2023/05/11 09:44:57;;;;;;;109.82;55.03;;;;;;;14.18;100.00;101473.16;5313548;27;20134;-65
2023/05/11 09:47:38;;;;;;;104.20;54.60;;;;;;;14.26;100.00;101470.69;5306196;27;20106;-65
2023/05/11 09:50:16;;;;;;;102.93;53.65;;;;;;;14.27;100.00;101461.69;5304402;27;20028;-65
2023/05/11 09:52:51;;;;;;;106.25;53.95;;;;;;;14.27;100.00;101466.19;5311229;27;20043;-65
2023/05/11 09:55:22;;;;;;;106.93;52.72;;;;;;;14.25;100.00;101471.69;5317716;27;20028;-65
2023/05/11 09:57:56;;;;;;;102.20;52.70;;;;;;;14.24;100.00;101469.13;5309492;27;20035;-65
2023/05/11 10:00:28;;;;;;;99.57;52.25;;;;;;;14.23;100.00;101472.78;5312782;27;20061;-65
2023/05/11 10:03:04;;;;;;;101.88;51.78;;;;;;;14.26;100.00;101470.69;5313869;27;20102;-65
2023/05/11 10:05:36;;;;;;;99.63;53.13;;;;;;;14.26;100.00;101472.53;5310649;27;21219;-65
2023/05/11 10:08:07;;;;;;;96.68;51.60;;;;;;;14.25;100.00;101468.16;5293928;28;20033;-65
2023/05/11 10:10:39;;;;;;;94.07;49.58;;;;;;;14.26;100.00;101459.97;5316466;27;20023;-65
2023/05/11 10:13:11;;;;;;;97.50;50.65;;;;;;;14.22;100.00;101468.41;5308282;28;20059;-65
2023/05/11 10:15:42;;;;;;;95.40;50.88;;;;;;;14.38;100.00;101465.28;5314296;28;20024;-64
2023/05/11 10:18:14;;;;;;;97.38;48.90;;;;;;;14.43;100.00;101474.69;5306617;27;21280;-63
2023/05/11 10:20:46;;;;;;;89.55;49.03;;;;;;;14.48;100.00;101471.63;5309760;27;20074;-64
2023/05/11 10:23:18;;;;;;;84.68;46.25;;;;;;;14.52;100.00;101465.88;5303983;28;20062;-64
2023/05/11 10:25:51;;;;;;;80.25;45.47;;;;;;;14.48;100.00;101467.09;5314695;27;20031;-65
2023/05/11 10:28:23;;;;;;;81.77;44.77;;;;;;;14.59;100.00;101463.53;5312228;27;20034;-65
2023/05/11 10:30:56;;;;;;;78.72;44.58;;;;;;;14.67;100.00;101463.75;5314198;27;20056;-65
2023/05/11 10:33:27;;;;;;;78.60;43.88;;;;;;;14.87;100.00;101454.00;5311383;27;20023;-65
2023/05/11 10:35:59;;;;;;;80.53;43.38;;;;;;;14.80;100.00;101460.88;5307106;28;20042;-65
2023/05/11 10:38:31;;;;;;;80.90;44.65;;;;;;;14.79;100.00;101459.19;5306887;28;20032;-65
2023/05/11 10:41:15;;;;;;;81.43;44.42;;;;;;;14.86;100.00;101459.50;5315687;28;20039;-65
2023/05/11 10:44:16;;;;;;;82.85;44.67;;;;;;;14.87;100.00;101454.00;5313908;28;20114;-65
2023/05/11 10:47:00;;;;;;;82.90;45.42;;;;;;;14.77;100.00;101463.84;5313743;28;20053;-65
2023/05/11 10:49:43;;;;;;;88.87;46.50;;;;;;;14.83;100.00;101449.88;5314859;27;20020;-65
2023/05/11 10:52:27;;;;;;;88.28;47.78;;;;;;;14.88;100.00;101452.16;5314604;27;20035;-65
2023/05/11 10:55:04;;;;;;;87.57;46.22;;;;;;;14.89;100.00;101445.81;5316279;27;20048;-65
2023/05/11 10:58:05;;;;;;;90.47;48.38;;;;;;;15.01;100.00;101447.44;5318931;27;20046;-65
2023/05/11 11:01:14;;;;;;;90.80;46.75;;;;;;;15.14;100.00;101446.41;5305447;27;20130;-64
2023/05/11 11:03:59;;;;;;;83.85;45.05;;;;;;;15.15;100.00;101440.03;5321236;27;20043;-65
2023/05/11 11:06:32;;;;;;;78.90;42.88;;;;;;;15.19;100.00;101433.44;5317934;27;20405;-65
2023/05/11 11:09:12;;;;;;;82.63;44.70;;;;;;;15.24;100.00;101433.88;5317818;27;20115;-65
2023/05/11 11:11:46;;;;;;;86.15;45.13;;;;;;;15.34;100.00;101439.28;5314356;27;20387;-65
2023/05/11 11:14:18;;;;;;;76.03;41.17;;;;;;;15.31;100.00;101432.34;5316558;27;20128;-65
2023/05/11 11:17:17;;;;;;;77.20;42.75;;;;;;;15.29;100.00;101431.63;5321084;27;20122;-65
2023/05/11 11:19:48;;;;;;;73.20;42.92;;;;;;;15.35;100.00;101428.41;5311716;27;20122;-65
2023/05/11 11:22:35;;;;;;;76.75;43.88;;;;;;;15.44;100.00;101424.91;5316992;27;20031;-65
2023/05/11 11:25:14;;;;;;;77.65;42.25;;;;;;;15.49;100.00;101424.50;5309364;27;20043;-65